Peruwelz, Belgium
Current Conditions -  °F | °C
As of 12:25 PM on Friday 24 Oct 2014 (Local Time) from EBCV Reporting Station
Broken Clouds Broken Clouds  
Wind Chill: 55°   Ceiling: 5500
Heat Index: 55°   Visibility: 6mi
Dew Point: 50°   Wind: 14mph
Humidity: 82%   Direction: 190°S
Pressure: 30.09"   Gusts: NA
Location:  50.51°N, 3.59°E
Report Text: EBCV 241025Z AUTO 19012KT 9999 BKN055/// 13/10 Q1019 BLU
Loading
Personal Weather Stations






























Interactive Weather Map
Tropical Storm Tracking
New forecast layout! Learn more

10-Day Weather Forecast

Advertisements
Track Severe Weather on mobile